createdAt,value
2022-10-04T00:00:34.036Z,73.508000
2022-10-04T00:05:16.549Z,73.112000
2022-10-04T00:10:19.089Z,72.992000
2022-10-04T00:15:21.823Z,72.788000
2022-10-04T00:20:24.384Z,72.011429
2022-10-04T00:25:27.100Z,71.804000
2022-10-04T00:30:29.489Z,71.684000
2022-10-04T00:35:32.173Z,70.796000
2022-10-04T00:40:34.653Z,70.712000
2022-10-04T00:45:16.920Z,71.156000
2022-10-04T00:50:19.813Z,70.484000
2022-10-04T00:55:22.246Z,69.272857
2022-10-04T01:00:25.306Z,68.264000
2022-10-04T01:05:27.963Z,67.448000
2022-10-04T01:10:30.435Z,66.668000
2022-10-04T01:15:33.744Z,66.260000
2022-10-04T01:20:16.142Z,66.164000
2022-10-04T01:25:18.659Z,65.408000
2022-10-04T01:30:20.973Z,65.216000
2022-10-04T01:35:23.654Z,65.325714
2022-10-04T01:40:25.929Z,65.372000
2022-10-04T01:45:28.572Z,66.128000
2022-10-04T01:50:31.245Z,65.192000
2022-10-04T01:55:34.095Z,64.196000
2022-10-04T02:00:16.861Z,63.308000
2022-10-04T02:05:19.875Z,63.152000
2022-10-04T02:10:22.725Z,63.500000
2022-10-04T02:15:25.323Z,63.224000
2022-10-04T02:20:28.797Z,62.768000
2022-10-04T02:25:31.394Z,62.600000
2022-10-04T02:30:34.401Z,62.336000
2022-10-04T02:35:17.717Z,61.592000
2022-10-04T02:40:21.172Z,61.628000
2022-10-04T02:45:23.737Z,61.160000
2022-10-04T02:50:26.538Z,61.100000
2022-10-04T02:55:29.677Z,60.632000
2022-10-04T03:00:33.564Z,61.064000
2022-10-04T03:05:16.670Z,61.772000
2022-10-04T03:10:20.250Z,61.316000
2022-10-04T03:15:23.355Z,60.851429
2022-10-04T03:20:26.471Z,60.692000
2022-10-04T03:25:29.276Z,60.332000
2022-10-04T03:30:32.878Z,60.728000
2022-10-04T03:35:35.888Z,60.848000
2022-10-04T03:40:19.337Z,61.088000
2022-10-04T03:45:23.424Z,60.902857
2022-10-04T03:50:27.005Z,60.800000
2022-10-04T03:55:31.438Z,59.996000
2022-10-04T04:00:16.384Z,59.120000
2022-10-04T04:05:19.744Z,58.436000
2022-10-04T04:10:23.894Z,58.190000
2022-10-04T04:15:28.066Z,57.980000
2022-10-04T04:20:31.661Z,58.220000
2022-10-04T04:25:34.571Z,58.028000
2022-10-04T04:30:17.314Z,58.052000
2022-10-04T04:35:20.347Z,57.992000
2022-10-04T04:40:23.361Z,57.971429
2022-10-04T04:45:26.814Z,57.380000
2022-10-04T04:50:29.249Z,56.876000
2022-10-04T04:55:49.965Z,56.816000
2022-10-04T05:00:34.561Z,56.792000
2022-10-04T05:05:17.257Z,56.324000
2022-10-04T05:10:20.565Z,56.072000
2022-10-04T05:15:23.918Z,55.888571
2022-10-04T05:20:27.274Z,55.304000
2022-10-04T05:25:30.063Z,54.812000
2022-10-04T05:30:32.810Z,55.376000
2022-10-04T05:35:15.988Z,55.100000
2022-10-04T05:40:17.480Z,54.968000
2022-10-04T05:45:20.217Z,55.484000
2022-10-04T05:50:22.577Z,55.271429
2022-10-04T05:56:02.179Z,55.976000
2022-10-04T06:00:27.597Z,55.952000
2022-10-04T06:05:30.485Z,56.060000
2022-10-04T07:30:17.788Z,53.600000
2022-10-04T07:35:28.490Z,53.600000
2022-10-04T07:40:35.917Z,53.444000
2022-10-04T07:45:16.478Z,53.156000
2022-10-04T07:50:18.906Z,53.372000
2022-10-04T07:55:21.104Z,53.072000
2022-10-04T08:00:23.813Z,52.982857
2022-10-04T08:05:26.454Z,52.652000
2022-10-04T08:10:28.952Z,52.292000
2022-10-04T08:15:31.745Z,52.304000
2022-10-04T08:20:34.541Z,52.616000
2022-10-04T08:25:16.987Z,52.508000
2022-10-04T08:30:19.779Z,51.896000
2022-10-04T08:35:22.182Z,51.388571
2022-10-04T08:40:24.780Z,51.044000
2022-10-04T08:45:27.473Z,50.720000
2022-10-04T08:50:30.416Z,50.504000
2022-10-04T08:55:32.641Z,50.552000
2022-10-04T09:00:34.935Z,50.360000
2022-10-04T09:10:25.054Z,49.967273
2022-10-04T09:15:25.752Z,49.604000
2022-10-04T09:20:39.797Z,49.424000
2022-10-04T09:25:31.183Z,49.220000
2022-10-04T09:30:34.241Z,49.820000
2022-10-04T09:35:19.108Z,50.000000
2022-10-04T09:40:20.157Z,49.880000
2022-10-04T09:45:22.371Z,49.922857
2022-10-04T09:50:26.685Z,49.700000
2022-10-04T09:55:27.687Z,49.604000
2022-10-04T10:00:30.014Z,50.132000
2022-10-04T10:05:32.581Z,50.216000
2022-10-04T10:10:35.893Z,50.180000
2022-10-04T10:15:17.839Z,50.108000
2022-10-04T10:20:21.838Z,49.724000
2022-10-04T10:25:23.192Z,49.370000
2022-10-04T10:30:26.304Z,49.280000
2022-10-04T10:35:29.531Z,49.280000
2022-10-04T10:40:32.342Z,49.052000
2022-10-04T10:45:35.220Z,48.680000
2022-10-04T10:50:17.388Z,48.860000
2022-10-04T10:55:19.989Z,48.824000
2022-10-04T11:00:22.348Z,48.675714
2022-10-04T11:05:24.951Z,48.572000
2022-10-04T11:10:27.804Z,48.476000
2022-10-04T11:15:30.637Z,48.476000
2022-10-04T11:20:33.887Z,48.536000
2022-10-04T11:25:35.876Z,48.320000
2022-10-04T11:30:18.483Z,48.380000
2022-10-04T11:35:21.300Z,48.824000
2022-10-04T11:40:24.774Z,49.382857
2022-10-04T11:45:27.151Z,49.688000
2022-10-04T11:50:29.477Z,48.980000
2022-10-04T11:55:33.337Z,48.536000
2022-10-04T12:00:35.948Z,47.852000
2022-10-04T12:05:19.067Z,47.540000
2022-10-04T12:10:21.591Z,47.312000
2022-10-04T12:15:24.298Z,47.120000
2022-10-04T12:20:27.114Z,47.168000
2022-10-04T12:25:29.701Z,46.844000
2022-10-04T12:30:33.386Z,46.880000
2022-10-04T12:35:35.783Z,47.036000
2022-10-04T12:40:17.856Z,46.976000
2022-10-04T12:45:20.451Z,46.472000
2022-10-04T12:50:24.315Z,46.220000
2022-10-04T12:55:27.014Z,46.832000
2022-10-04T13:00:29.915Z,46.772000
2022-10-04T13:05:32.842Z,46.532000
2022-10-04T13:10:36.124Z,46.484000
2022-10-04T13:15:18.265Z,46.328000
2022-10-04T13:20:20.881Z,46.280000
2022-10-04T13:25:24.292Z,45.962857
2022-10-04T13:30:27.493Z,45.656000
2022-10-04T13:35:36.551Z,45.284000
2022-10-04T13:40:33.892Z,45.536000
2022-10-04T13:45:16.151Z,45.620000
2022-10-04T13:50:19.537Z,45.956000
2022-10-04T13:55:21.563Z,46.124000
2022-10-04T14:00:24.235Z,46.875714
2022-10-04T14:05:26.987Z,47.672000
2022-10-04T14:10:30.664Z,47.840000
2022-10-04T14:15:31.926Z,48.524000
2022-10-04T14:20:35.520Z,49.904000
2022-10-04T14:25:21.114Z,49.568000
2022-10-04T14:30:20.698Z,48.284000
2022-10-04T14:35:24.482Z,47.994286
2022-10-04T14:40:25.816Z,48.752000
2022-10-04T14:45:28.779Z,49.640000
2022-10-04T14:50:31.294Z,50.252000
2022-10-04T14:55:33.727Z,50.756000
2022-10-04T15:00:17.411Z,51.080000
2022-10-04T15:05:20.758Z,51.728000
2022-10-04T15:10:22.885Z,53.522857
2022-10-04T15:15:26.889Z,55.052000
2022-10-04T15:20:28.603Z,55.100000
2022-10-04T15:25:32.118Z,56.240000
2022-10-04T15:30:33.942Z,56.696000
2022-10-04T15:35:17.657Z,56.720000
2022-10-04T15:40:19.621Z,57.644000
2022-10-04T15:45:24.717Z,57.662857
2022-10-04T15:50:25.957Z,57.608000
2022-10-04T15:55:29.337Z,58.388000
2022-10-04T16:00:33.867Z,58.748000
2022-10-04T16:05:35.218Z,59.252000
2022-10-04T16:10:18.509Z,59.348000
2022-10-04T16:15:20.196Z,59.180000
2022-10-04T16:20:22.575Z,59.475714
2022-10-04T16:25:25.024Z,59.756000
2022-10-04T16:30:28.380Z,59.948000
2022-10-04T16:35:29.831Z,60.380000
2022-10-04T16:40:32.264Z,60.200000
2022-10-04T16:45:34.398Z,60.560000
2022-10-04T16:50:16.531Z,61.124000
2022-10-04T16:55:18.823Z,61.832000
2022-10-04T17:00:22.144Z,61.808000
2022-10-04T17:05:25.149Z,61.995714
2022-10-04T17:10:28.362Z,62.372000
2022-10-04T17:15:29.946Z,62.216000
2022-10-04T17:20:32.013Z,62.996000
2022-10-04T17:25:34.548Z,64.040000
2022-10-04T17:30:17.331Z,64.592000
2022-10-04T17:35:20.242Z,64.160000
2022-10-04T17:40:22.945Z,65.634286
2022-10-04T17:45:25.825Z,65.816000
2022-10-04T17:50:29.212Z,66.896000
2022-10-04T17:55:31.791Z,65.600000
2022-10-04T18:00:34.423Z,65.132000
2022-10-04T18:05:18.496Z,66.836000
2022-10-04T18:10:24.549Z,67.256000
2022-10-04T18:15:24.343Z,67.280000
2022-10-04T18:20:29.689Z,67.976000
2022-10-04T18:25:31.292Z,67.172000
2022-10-04T18:30:33.651Z,67.820000
2022-10-04T18:35:17.682Z,68.192000
2022-10-04T18:40:19.694Z,68.720000
2022-10-04T18:45:24.632Z,68.527143
2022-10-04T18:50:27.827Z,68.156000
2022-10-04T18:55:31.303Z,69.488000
2022-10-04T19:00:34.845Z,68.468000
2022-10-04T19:05:16.049Z,69.428000
2022-10-04T19:10:18.399Z,68.972000
2022-10-04T19:15:21.461Z,69.236000
2022-10-04T19:20:27.506Z,69.517143
2022-10-04T19:25:23.465Z,69.788000
2022-10-04T19:30:33.395Z,69.512000
2022-10-04T19:35:16.112Z,70.220000
2022-10-04T19:40:19.279Z,70.712000
2022-10-04T19:45:22.603Z,70.905714
2022-10-04T19:50:26.011Z,70.604000
2022-10-04T19:55:28.822Z,70.160000
2022-10-04T20:00:31.134Z,71.072000
2022-10-04T20:05:34.553Z,72.284000
2022-10-04T20:10:16.601Z,72.044000
2022-10-04T20:15:22.698Z,72.440000
2022-10-04T20:20:22.771Z,72.577143
2022-10-04T20:25:26.655Z,72.620000
2022-10-04T20:30:29.056Z,72.332000
2022-10-04T20:35:33.761Z,72.776000
2022-10-04T20:40:16.133Z,72.896000
2022-10-04T20:45:20.136Z,72.860000
2022-10-04T20:50:24.007Z,72.860000
2022-10-04T20:55:27.853Z,72.980000
2022-10-04T21:00:31.905Z,74.036000
2022-10-04T21:05:33.799Z,75.020000
2022-10-04T21:10:17.154Z,74.120000
2022-10-04T21:15:20.132Z,74.324000
2022-10-04T21:20:23.712Z,74.274286
2022-10-04T21:25:26.934Z,74.456000
2022-10-04T21:30:30.899Z,73.976000
2022-10-04T21:35:34.270Z,73.916000
2022-10-04T21:40:37.128Z,73.964000
2022-10-04T21:45:18.691Z,74.900000
2022-10-04T21:50:22.148Z,74.672000
2022-10-04T21:55:25.135Z,75.315714
2022-10-04T22:00:27.390Z,75.776000
2022-10-04T22:05:30.176Z,75.476000
2022-10-04T22:10:34.579Z,75.164000
2022-10-04T22:15:16.164Z,74.948000
2022-10-04T22:20:19.412Z,75.104000
2022-10-04T22:25:22.324Z,74.814286
2022-10-04T22:30:25.432Z,74.264000
2022-10-04T22:35:28.820Z,74.456000
2022-10-04T22:40:31.456Z,75.140000
2022-10-04T22:45:34.810Z,75.812000
2022-10-04T22:50:17.797Z,75.632000
2022-10-04T22:55:20.387Z,75.608000
2022-10-04T23:00:23.586Z,75.572857
2022-10-04T23:05:26.909Z,76.352000
2022-10-04T23:10:28.575Z,75.644000
2022-10-04T23:15:31.669Z,74.876000
2022-10-04T23:20:34.971Z,74.972000
2022-10-04T23:25:19.390Z,74.864000
2022-10-04T23:30:21.007Z,74.756000
2022-10-04T23:35:24.442Z,74.968571
2022-10-04T23:40:27.752Z,75.656000
2022-10-04T23:45:31.121Z,75.704000
2022-10-04T23:50:33.655Z,75.884000
2022-10-04T23:55:16.328Z,76.316000
